MyMeetScores TOP 100 TOP TEAMS UPCOMING MEETS COMPLETED MEETS LATEST MEETS ADD SCORES SUPPORT SHOP
Personalized Gifts for Your ChampionShop@
MyMeetScores
 
Melina Albrecht, Gymkhana Gymnastics Club and Dance Studio - MyMeetScores.com
Melina Albrecht
Gymkhana Gymnastics Club and Dance Studio
Personal Bests
Level Vault Bars Beam Floor AA
3 9.825 9.800 9.250 9.650 38.225
4 9.275 9.775 9.300 9.450 37.500
5 8.700 8.800 8.400 9.050 34.950
6 8.900 9.100 8.900 9.275 35.700
7 9.400 9.200 8.650 9.475 36.450
8 8.375 7.750 8.200 9.100 32.825
Meet Scores
Date Meet Team Session Level Division Vault Bars Beam Floor AA
2023-01-13 Windy City Invitational- Women Gymkhana Gymnastics Club and Dance Studio A03 8 Senior 0.000 19T 0.000 19T 8.100 16 0.000 19T 8.100 19
2022-03-04 MEGA Spring Invite 2022 Gymkhana Gymnastics Club and Dance Studio 1 8 Senior 8.300 5 7.200 8 8.000 7 9.100 3 32.600 7
2022-02-24 Great Western Invitational - Women's Gymkhana Gymnastics Club and Dance Studio 6B 8 Cowgirl 8.375 8 7.750 10 7.650 9 9.050 7 32.825 10
2022-02-05 St. Valentines Classic Gymkhana Gymnastics Club and Dance Studio 7 8 Sr 8.025 7T 7.350 7 8.200 6T 8.950 4 32.525 7
2021-04-23 Region 5 Level 7/8 Regional Championships Illinois State Team 02C 7 SR C1 9.400 2T 9.100 6T 8.475 22 9.475 11T 36.450 11
2021-04-09 Illinois Level 7 8 State Championships Gymkhana Gymnastics Club and Dance Studio 4 7 Sr D 9.000 18T 9.200 8 8.425 27 9.300 16 35.925 14
2021-03-12 LUCKY INVITATIONAL Gymkhana Gymnastics Club and Dance Studio B06 7 Sr 9.175 2T 8.475 11 8.650 8 9.200 12 35.500 7
2021-02-19 Women's Midwest Open 2021 Gymkhana Gymnastics Club and Dance Studio 06B 7 All 8.975 16 8.825 16 8.025 18 9.425 11 35.250 17T
2020-02-21 Kinetic Classic Gymkhana Gymnastics Club and Dance Studio 01 6 Older 8.700 39T 8.750 31 8.900 37T 9.225 25T 35.575 33
2020-02-07 Harley Meet Womens - Midwest Twisters Gymkhana Gymnastics Club and Dance Studio O04 6 Sr A 8.900 2 9.100 1T 8.425 9 9.275 7 35.700 4
2020-01-24 King Arthur Invitational Gymkhana Gymnastics Club and Dance Studio 2 6 SR 8.575 8T 9.000 3T 8.600 8T 9.175 6 35.350 5
2020-01-10 St Jude Benefit Meet Gymkhana Gymnastics Club and Dance Studio 1B 6 Sr B 8.825 7 8.550 9 8.825 8 9.225 10T 35.425 7
2019-11-08 Illinois Judges Cup Gymkhana Gymnastics Club and Dance Studio P3 5 All Ages 8.700 19T 8.800 13T 8.400 28 9.050 13 34.950 13
2019-03-22 Illinois Gymnastics State Championships Gymkhana Gymnastics Club and Dance Studio 10 4 Sr E 9.200 7T 9.775 3 9.175 12T 9.350 5 37.500 7
2019-02-23 Kinetic Classic 2019 Gymkhana Gymnastics Club and Dance Studio 1 4 Older 8.400 28T 9.775 1 9.000 16T 9.150 7T 36.325 4
2019-02-08 Midwest Twisters Harley Meet Womens Gymkhana Gymnastics Club and Dance Studio T10 4 12 yrs.+ 8.750 5 9.525 1 9.250 2 9.400 1 36.925 1
2019-01-18 CGA Coaches Spectacular Gymkhana Gymnastics Club and Dance Studio 9A 4 11B up 8.875 5 9.275 1 9.275 1 9.425 2 36.850 1
2019-01-11 St Jude Benefit Meet Gymkhana Gymnastics Club and Dance Studio 5A 4 Sr B 9.275 3 9.175 1 9.300 2 9.450 1 37.200 1
2018-05-03 Illinois USA Gymnastics Level 3 State Championships Gymkhana Gymnastics Club and Dance Studio 6 3 Sr E 9.825 1 9.550 5 9.250 13T 9.600 4 38.225 3T
2018-02-16 Big Classic Gymkhana Gymnastics Club and Dance Studio 6B 3 Child D 9.250 5 9.800 1 8.525 13 9.650 1T 37.225 4
2018-02-08 Hal's Harley-Davidson Invite Womens Gymkhana Gymnastics Club and Dance Studio T07 3 11+ yrs 9.300 2 9.750 2 9.000 2 9.400 1T 37.450 1
2018-01-19 2018 Bravo Classic Gymkhana Gymnastics Club and Dance Studio 5B 3 Sr 9.725 1 9.425 5 8.725 12T 9.125 6T 37.000 5
2018-01-12 St Jude Benefit Meet Gymkhana Gymnastics Club and Dance Studio 6A 3 SrB 9.500 2 9.725 1 8.500 10T 9.400 2 37.125 3